Airfield :
LOGIN :

Register | Disclaimer

   EN    FR    IT 

 










Legend :    VFR   Marginal VFR   IFR   Intensive IFR   Very Intensive IFR
Visi :
Ceiling :
>= 8 km
>= 3000ft
5 to 8 km
1000 to 3000 ft
1500m to 5 km
500 to 1000 ft
800 to 1500m
200 to 500 ft
< 800m
< 200 ft
Symbols :   Thunderstorms  Fog  Heavy snow  Heavy precipitations  Wind > 20 kt
SIGMETs :     Misc.  Thunderstorms  Icing  Turbulence  Mountain Waves  Volcanic Ashes






- Airport Elevation : 12 ft
- IATA code : BCN


LEBL - Barcelone

CURRENT METAR :
  • 181930Z 21010KT 9999 FEW010 17/16 Q1015 NOSIG

EXPIRED METARs :
  • 181900Z 23008KT 190V260 9999 FEW020 17/16 Q1015 NOSIG
  • 181830Z 24009KT 200V270 9999 FEW020 18/15 Q1015 NOSIG
  • 181800Z 23020KT 9999 FEW020 18/15 Q1014 NOSIG
  • 181730Z 23021KT 9999 FEW015 18/16 Q1014 NOSIG
  • 181700Z 23022KT 9999 FEW015 19/16 Q1014 NOSIG

TAF TAF LEBL
Valid from the 18 at 18:00 until the 19 at 18:00 UTC


181700Z 1818/1918 21018G28KT 9999 FEW025 TX20/1912Z TN15/1906Z
BECMG 1821/1823 05008KT
BECMG 1908/1910 19010KT



MET'MAP, your aeronautical weather chart ! - Copyright ORBIFLY December 2007 - Disclaimer

ORBIFLY MET'MAP TEAM :

Programming & Development : Alexandra Zaïnal
Concept & original design : Baudouin d'Aumeries
Assistance for programming : Marc-Olivier Méhu
Technical & hardware support : Manuel Goepfert

Contact : metmap@orbifly.com




SOURCES & CREDITS :

   NOAA